Time;durP1;ratioP1;P1;durP2;ratioP2;P2;SDS_P1;SDS_P2;PMS_P1;PMS_P2;Temp;Humidity;BMP_temperature;BMP_pressure;BME280_temperature;BME280_humidity;BME280_pressure;Samples;Min_cycle;Max_cycle;Signal;HPM_P1;HPM_P2
2023/12/11 00:01:09;;;;;;;27.45;4.40;;;8.70;99.90;;;;;;5061195;28;20035;-79
2023/12/11 00:03:35;;;;;;;25.55;4.95;;;8.50;99.90;;;;;;5061085;28;20036;-79
2023/12/11 00:06:01;;;;;;;28.33;4.55;;;8.70;99.90;;;;;;5055349;28;20040;-79
2023/12/11 00:08:26;;;;;;;31.50;4.43;;;8.50;99.90;;;;;;5060887;28;20101;-79
2023/12/11 00:10:52;;;;;;;26.75;4.05;;;8.60;99.90;;;;;;5061635;28;20055;-79
2023/12/11 00:13:17;;;;;;;35.05;4.47;;;8.50;99.90;;;;;;5059213;28;20082;-79
2023/12/11 00:15:43;;;;;;;27.55;5.45;;;8.50;99.90;;;;;;5062358;28;20041;-79
2023/12/11 00:18:09;;;;;;;30.20;4.88;;;8.50;99.90;;;;;;5056118;28;20147;-78
2023/12/11 00:20:34;;;;;;;26.23;4.93;;;8.40;99.90;;;;;;5063319;28;20029;-78
2023/12/11 00:23:00;;;;;;;30.27;4.72;;;8.60;99.90;;;;;;5041571;28;20092;-79
2023/12/11 00:25:29;;;;;;;26.63;5.05;;;8.50;99.90;;;;;;5060588;28;20041;-80
2023/12/11 00:27:54;;;;;;;25.48;4.70;;;8.50;99.90;;;;;;5060584;28;20112;-78
2023/12/11 00:30:20;;;;;;;31.13;4.88;;;8.60;99.90;;;;;;5057435;28;20025;-79
2023/12/11 00:32:46;;;;;;;34.55;5.28;;;8.70;99.90;;;;;;5058082;28;20029;-79
2023/12/11 00:35:11;;;;;;;30.85;4.53;;;8.80;99.90;;;;;;5060903;28;20041;-78
2023/12/11 00:37:37;;;;;;;29.92;4.88;;;8.80;99.90;;;;;;5048924;28;20037;-79
2023/12/11 00:40:03;;;;;;;38.28;6.15;;;8.70;99.90;;;;;;5056054;28;20107;-78
2023/12/11 00:42:28;;;;;;;31.77;5.40;;;8.60;99.90;;;;;;5061077;28;20155;-79
2023/12/11 00:44:54;;;;;;;32.78;5.43;;;8.60;99.90;;;;;;5090376;28;20046;-78
2023/12/11 00:47:20;;;;;;;31.52;5.63;;;8.90;99.90;;;;;;5062605;28;20040;-79
2023/12/11 00:49:46;;;;;;;34.83;5.35;;;8.70;99.90;;;;;;5057325;28;20033;-78
2023/12/11 00:52:12;;;;;;;35.17;5.50;;;8.90;99.90;;;;;;5043678;28;20044;-79
2023/12/11 00:54:37;;;;;;;38.70;5.55;;;8.60;99.90;;;;;;5046807;28;20037;-79
2023/12/11 00:57:03;;;;;;;41.10;5.03;;;8.70;99.90;;;;;;5064382;28;20450;-78
2023/12/11 00:59:29;;;;;;;35.05;5.47;;;8.60;99.90;;;;;;5065946;28;20047;-79
2023/12/11 01:01:54;;;;;;;34.25;5.68;;;8.60;99.90;;;;;;5060763;28;20041;-79
2023/12/11 01:04:20;;;;;;;27.52;5.30;;;8.80;99.90;;;;;;5095332;28;20037;-78
2023/12/11 01:06:46;;;;;;;28.85;6.15;;;8.80;99.90;;;;;;5062458;28;20086;-78
2023/12/11 01:09:12;;;;;;;37.92;5.28;;;8.60;99.90;;;;;;5049035;28;20048;-78
2023/12/11 01:11:39;;;;;;;35.13;5.90;;;8.70;99.90;;;;;;5060973;28;20116;-78
2023/12/11 01:14:04;;;;;;;28.10;5.18;;;9.00;99.90;;;;;;5064167;28;20116;-78
2023/12/11 01:16:30;;;;;;;35.67;5.82;;;8.70;99.90;;;;;;5061066;28;20033;-79
2023/12/11 01:18:55;;;;;;;32.22;5.35;;;8.90;99.90;;;;;;5059636;28;20132;-78
2023/12/11 01:21:21;;;;;;;32.42;5.18;;;8.80;99.90;;;;;;5064893;28;20033;-79
2023/12/11 01:23:46;;;;;;;32.63;4.72;;;8.70;99.90;;;;;;5065849;28;20445;-79
2023/12/11 01:26:12;;;;;;;33.65;4.55;;;9.00;99.90;;;;;;5068554;28;20045;-78
2023/12/11 01:28:38;;;;;;;33.97;5.30;;;8.70;99.90;;;;;;5045853;28;20036;-79
2023/12/11 01:31:04;;;;;;;35.70;4.80;;;8.70;99.90;;;;;;5065343;28;20044;-79
2023/12/11 01:33:29;;;;;;;33.05;5.00;;;8.80;99.90;;;;;;5038401;28;20041;-79
2023/12/11 01:35:55;;;;;;;36.40;5.30;;;8.70;99.90;;;;;;5062973;28;20051;-79
2023/12/11 01:38:21;;;;;;;36.17;4.75;;;8.80;99.90;;;;;;5063337;28;20051;-80
2023/12/11 01:40:46;;;;;;;34.70;5.30;;;8.70;99.90;;;;;;5064725;28;20039;-79
2023/12/11 01:43:19;;;;;;;37.95;6.35;;;8.70;99.90;;;;;;5057736;28;20056;-78
2023/12/11 01:46:12;;;;;;;28.55;4.90;;;8.80;99.90;;;;;;5062474;28;20037;-79
2023/12/11 01:48:37;;;;;;;23.00;4.00;;;8.70;99.90;;;;;;5064839;28;20055;-79
2023/12/11 01:51:05;;;;;;;32.15;5.28;;;9.00;99.90;;;;;;5066689;28;20516;-79
2023/12/11 01:53:32;;;;;;;29.95;4.75;;;8.70;99.90;;;;;;5065503;28;20033;-79
2023/12/11 01:55:58;;;;;;;26.73;4.57;;;8.80;99.90;;;;;;5063809;28;20101;-79
2023/12/11 01:58:24;;;;;;;31.77;4.43;;;9.00;99.90;;;;;;5063834;28;20032;-79
2023/12/11 02:00:50;;;;;;;34.95;5.22;;;8.70;99.90;;;;;;5062193;28;20043;-78
2023/12/11 02:03:16;;;;;;;28.63;4.90;;;9.00;99.90;;;;;;5062300;28;20044;-78
2023/12/11 02:05:45;;;;;;;34.38;4.30;;;8.90;99.90;;;;;;5063291;28;20025;-79
2023/12/11 02:08:11;;;;;;;30.48;4.95;;;8.70;99.90;;;;;;5060919;28;20032;-78
2023/12/11 02:10:36;;;;;;;25.55;4.88;;;8.90;99.90;;;;;;5059446;28;20112;-78
2023/12/11 02:13:03;;;;;;;35.65;5.20;;;8.70;99.90;;;;;;5060989;28;20055;-79
2023/12/11 02:15:43;;;;;;;33.97;4.95;;;8.70;99.90;;;;;;5061808;28;20029;-79
2023/12/11 02:18:11;;;;;;;33.95;5.00;;;8.80;99.90;;;;;;5060343;28;20029;-78
2023/12/11 02:20:38;;;;;;;29.88;4.57;;;8.70;99.90;;;;;;5040840;28;20036;-78
2023/12/11 02:23:08;;;;;;;40.17;5.10;;;8.70;99.90;;;;;;5057658;28;20041;-78
2023/12/11 02:25:36;;;;;;;30.45;5.47;;;8.70;99.90;;;;;;5058805;28;20056;-78
2023/12/11 02:28:03;;;;;;;29.55;4.10;;;8.60;99.90;;;;;;5042993;28;20033;-79
2023/12/11 02:30:32;;;;;;;27.45;4.75;;;8.80;99.90;;;;;;5060432;28;20036;-77
2023/12/11 02:32:58;;;;;;;36.35;5.35;;;8.60;99.90;;;;;;5045955;28;20505;-79
2023/12/11 02:35:23;;;;;;;36.70;5.03;;;8.60;99.90;;;;;;5094824;28;20025;-79
2023/12/11 02:37:49;;;;;;;38.60;5.32;;;8.80;99.90;;;;;;5054905;28;20037;-78
2023/12/11 02:40:15;;;;;;;37.40;4.90;;;8.90;99.90;;;;;;5062320;28;20033;-78
2023/12/11 02:42:49;;;;;;;40.72;5.25;;;8.90;99.90;;;;;;5060842;28;20041;-78
2023/12/11 02:45:15;;;;;;;39.75;5.25;;;8.70;99.90;;;;;;5058296;28;20078;-78
2023/12/11 02:47:41;;;;;;;33.03;5.32;;;8.70;99.90;;;;;;5041330;28;20080;-79
2023/12/11 02:50:07;;;;;;;33.17;5.03;;;8.80;99.90;;;;;;5056859;28;20036;-79
2023/12/11 02:52:32;;;;;;;34.70;6.55;;;8.70;99.90;;;;;;5056473;28;20041;-78
2023/12/11 02:54:58;;;;;;;40.22;5.55;;;8.80;99.90;;;;;;5060759;28;20041;-78
2023/12/11 02:57:24;;;;;;;36.35;6.97;;;8.90;99.90;;;;;;5059697;28;20279;-79
2023/12/11 02:59:49;;;;;;;31.35;4.80;;;9.00;99.90;;;;;;5058421;28;20044;-78
2023/12/11 03:02:15;;;;;;;40.10;5.63;;;9.10;99.90;;;;;;5057400;28;20025;-78
2023/12/11 03:04:40;;;;;;;35.03;5.65;;;8.80;99.90;;;;;;5055612;28;20061;-78
2023/12/11 03:07:06;;;;;;;34.20;5.45;;;8.80;99.90;;;;;;5037504;28;20033;-78
2023/12/11 03:09:32;;;;;;;37.05;5.90;;;8.80;99.90;;;;;;5040405;28;20033;-78
2023/12/11 03:11:57;;;;;;;37.22;6.60;;;8.90;99.90;;;;;;5055470;28;20464;-78
2023/12/11 03:14:23;;;;;;;40.28;6.97;;;8.80;99.90;;;;;;5061207;28;20033;-78
2023/12/11 03:16:49;;;;;;;34.03;6.03;;;9.00;99.90;;;;;;5061005;28;20112;-79
2023/12/11 03:19:16;;;;;;;33.35;4.72;;;9.00;99.90;;;;;;5060339;28;20064;-78
2023/12/11 03:21:42;;;;;;;36.20;6.45;;;8.70;99.90;;;;;;5060230;28;20045;-78
2023/12/11 03:24:08;;;;;;;39.03;5.90;;;8.70;99.90;;;;;;5057775;28;20100;-78
2023/12/11 03:26:33;;;;;;;42.50;6.20;;;8.90;99.90;;;;;;5056707;28;20059;-78
2023/12/11 03:28:59;;;;;;;34.95;5.85;;;8.90;99.90;;;;;;5059683;28;20106;-78
2023/12/11 03:31:25;;;;;;;38.80;6.03;;;8.80;99.90;;;;;;5056160;28;20583;-79
2023/12/11 03:33:50;;;;;;;46.70;6.13;;;8.90;99.90;;;;;;5051259;28;20037;-78
2023/12/11 03:36:16;;;;;;;34.97;5.25;;;8.80;99.90;;;;;;5059314;28;20037;-78
2023/12/11 03:38:42;;;;;;;32.25;5.28;;;8.80;99.90;;;;;;5053272;28;20039;-79
2023/12/11 03:41:07;;;;;;;45.97;5.88;;;8.90;99.90;;;;;;5077069;28;20419;-79
2023/12/11 03:43:33;;;;;;;37.13;6.00;;;9.00;99.90;;;;;;5079015;28;20028;-79
2023/12/11 03:45:59;;;;;;;40.42;6.80;;;8.90;99.90;;;;;;5062293;28;20095;-78
2023/12/11 03:48:25;;;;;;;36.38;5.25;;;9.20;99.90;;;;;;5056357;28;20044;-79
2023/12/11 03:50:52;;;;;;;38.90;6.40;;;9.10;99.90;;;;;;5058307;28;20048;-78
2023/12/11 03:53:17;;;;;;;39.25;6.05;;;8.90;99.90;;;;;;5051968;28;20045;-79
2023/12/11 03:55:43;;;;;;;40.38;7.05;;;9.00;99.90;;;;;;5053893;28;20083;-78
2023/12/11 03:58:09;;;;;;;47.55;7.28;;;9.00;99.90;;;;;;5062680;28;20112;-78
2023/12/11 04:00:34;;;;;;;43.50;6.50;;;9.00;99.90;;;;;;5060900;28;20036;-78
2023/12/11 04:03:00;;;;;;;42.63;6.80;;;9.00;99.90;;;;;;5061173;28;20055;-78
2023/12/11 04:05:26;;;;;;;49.13;6.82;;;9.10;99.90;;;;;;5058973;28;20067;-79
2023/12/11 04:07:51;;;;;;;40.05;5.63;;;9.20;99.90;;;;;;5057295;28;20052;-79
2023/12/11 04:10:17;;;;;;;35.35;5.70;;;9.10;99.90;;;;;;5043804;28;20096;-78
2023/12/11 04:12:43;;;;;;;39.28;5.93;;;9.10;99.90;;;;;;5060079;28;20041;-77
2023/12/11 04:15:09;;;;;;;40.53;6.13;;;9.20;99.90;;;;;;5062732;28;20106;-78
2023/12/11 04:17:34;;;;;;;34.83;5.43;;;9.20;99.90;;;;;;5056758;28;20540;-79
2023/12/11 04:20:00;;;;;;;34.63;5.13;;;9.20;99.90;;;;;;5077776;28;20037;-78
2023/12/11 04:22:25;;;;;;;39.13;6.45;;;9.10;99.90;;;;;;5053079;28;20116;-79
2023/12/11 04:24:51;;;;;;;41.00;6.85;;;9.10;99.90;;;;;;5058678;28;20047;-79
2023/12/11 04:27:17;;;;;;;40.25;6.38;;;9.10;99.90;;;;;;5059290;28;20090;-78
2023/12/11 04:29:42;;;;;;;36.30;6.57;;;9.10;99.90;;;;;;5053702;28;20078;-79
2023/12/11 04:32:08;;;;;;;41.17;5.80;;;9.20;99.90;;;;;;5058405;28;20067;-79
2023/12/11 04:34:33;;;;;;;38.95;5.93;;;9.10;99.90;;;;;;5059168;28;20082;-79
2023/12/11 04:36:59;;;;;;;37.08;5.55;;;9.10;99.90;;;;;;5061347;28;20056;-78
2023/12/11 04:39:25;;;;;;;39.28;5.90;;;9.10;99.90;;;;;;5060287;28;20055;-79
2023/12/11 04:41:50;;;;;;;40.22;6.30;;;9.10;99.90;;;;;;5060139;28;20089;-79
2023/12/11 04:44:16;;;;;;;42.90;6.72;;;9.20;99.90;;;;;;5053802;28;20052;-80
2023/12/11 04:46:41;;;;;;;31.15;4.50;;;9.10;99.90;;;;;;5050929;28;20033;-79
2023/12/11 04:49:07;;;;;;;33.92;5.38;;;9.00;99.90;;;;;;5054913;28;20118;-78
2023/12/11 04:51:32;;;;;;;38.88;5.72;;;9.10;99.90;;;;;;5056780;28;20047;-78
2023/12/11 04:53:58;;;;;;;32.28;5.65;;;9.10;99.90;;;;;;5041599;28;20045;-79
2023/12/11 04:56:24;;;;;;;30.52;5.60;;;9.00;99.90;;;;;;5058903;28;20033;-78
2023/12/11 04:58:50;;;;;;;31.52;5.85;;;9.00;99.90;;;;;;5060264;28;20535;-79
2023/12/11 05:01:16;;;;;;;40.45;5.63;;;9.10;99.90;;;;;;5058989;28;20045;-78
2023/12/11 05:03:41;;;;;;;34.30;5.18;;;8.90;99.90;;;;;;5058307;28;20048;-79
2023/12/11 05:06:07;;;;;;;33.90;4.88;;;8.90;99.90;;;;;;5057339;28;20485;-79
2023/12/11 05:08:33;;;;;;;32.03;4.80;;;8.90;99.90;;;;;;5060955;28;20039;-79
2023/12/11 05:10:58;;;;;;;35.67;5.70;;;9.20;99.90;;;;;;5057384;28;20131;-79
2023/12/11 05:13:24;;;;;;;34.45;4.65;;;8.90;99.90;;;;;;5040352;28;20081;-79
2023/12/11 05:15:50;;;;;;;36.90;5.05;;;9.00;99.90;;;;;;5062056;28;20044;-78
2023/12/11 05:18:16;;;;;;;34.58;4.65;;;8.80;99.90;;;;;;5060710;28;20033;-78
2023/12/11 05:20:42;;;;;;;34.42;5.10;;;8.90;99.90;;;;;;5060343;28;20090;-78
2023/12/11 05:23:07;;;;;;;34.85;4.78;;;8.90;99.90;;;;;;5059366;28;20035;-78
2023/12/11 05:25:33;;;;;;;28.40;5.43;;;9.10;99.90;;;;;;5057358;28;20061;-78
2023/12/11 05:27:58;;;;;;;32.90;5.10;;;8.90;99.90;;;;;;5060522;28;20116;-79
2023/12/11 05:30:24;;;;;;;33.05;4.53;;;8.90;99.90;;;;;;5058715;28;20163;-78
2023/12/11 05:32:50;;;;;;;39.78;6.18;;;9.10;99.90;;;;;;5092337;28;20101;-79
2023/12/11 05:35:15;;;;;;;36.25;4.82;;;9.00;99.90;;;;;;5058400;28;20036;-78
2023/12/11 05:37:41;;;;;;;25.67;4.45;;;8.90;99.90;;;;;;5059427;28;20067;-79
2023/12/11 05:40:07;;;;;;;29.98;4.68;;;9.00;99.90;;;;;;5060095;28;20032;-78
2023/12/11 05:42:33;;;;;;;34.67;5.15;;;8.90;99.90;;;;;;5057456;28;20086;-79
2023/12/11 05:44:59;;;;;;;32.63;5.50;;;8.80;99.90;;;;;;5059591;28;20084;-79
2023/12/11 05:47:25;;;;;;;28.40;4.18;;;8.90;99.90;;;;;;5061477;28;20060;-78
2023/12/11 05:49:50;;;;;;;33.70;5.40;;;9.10;99.90;;;;;;5054885;28;20064;-78
2023/12/11 05:52:16;;;;;;;26.25;4.22;;;9.00;99.90;;;;;;5060523;28;20037;-80
2023/12/11 05:54:41;;;;;;;27.40;4.32;;;9.10;99.90;;;;;;5058703;28;20080;-78
2023/12/11 05:57:07;;;;;;;25.02;5.38;;;9.00;99.90;;;;;;5062596;28;20119;-78
2023/12/11 05:59:33;;;;;;;30.50;4.15;;;9.00;99.90;;;;;;5041125;28;20053;-78
2023/12/11 06:01:58;;;;;;;26.10;4.05;;;9.00;99.90;;;;;;5060931;28;20052;-78
2023/12/11 06:04:24;;;;;;;27.75;4.38;;;9.00;99.90;;;;;;5061901;28;20025;-79
2023/12/11 06:06:50;;;;;;;21.13;4.00;;;9.00;99.90;;;;;;5062031;28;20044;-79
2023/12/11 06:09:16;;;;;;;26.52;4.35;;;9.00;99.90;;;;;;5064299;28;20064;-79
2023/12/11 06:11:41;;;;;;;30.88;4.97;;;9.10;99.90;;;;;;5039622;28;20069;-79
2023/12/11 06:14:07;;;;;;;25.98;4.13;;;9.00;99.90;;;;;;5036037;28;20047;-78
2023/12/11 06:16:32;;;;;;;28.65;4.93;;;9.00;99.90;;;;;;5064713;28;20496;-78
2023/12/11 06:18:58;;;;;;;26.35;3.78;;;9.00;99.90;;;;;;5063157;28;20040;-78
2023/12/11 06:21:25;;;;;;;35.13;4.60;;;9.00;99.90;;;;;;5059537;28;20472;-78
2023/12/11 06:23:51;;;;;;;29.63;4.65;;;9.10;99.90;;;;;;5061559;28;20079;-80
2023/12/11 06:26:34;;;;;;;21.65;4.18;;;9.00;99.90;;;;;;5063353;28;20040;-79
2023/12/11 06:29:00;;;;;;;22.02;3.83;;;8.90;99.90;;;;;;5057181;28;20044;-79
2023/12/11 06:31:30;;;;;;;28.58;4.93;;;9.00;99.90;;;;;;5058087;28;20045;-78
2023/12/11 06:33:56;;;;;;;30.52;5.22;;;8.90;99.90;;;;;;5042022;28;20115;-78
2023/12/11 06:36:22;;;;;;;21.48;3.67;;;9.00;99.90;;;;;;5038599;28;20121;-79
2023/12/11 06:38:50;;;;;;;27.00;4.90;;;8.90;99.90;;;;;;5057540;28;20565;-79
2023/12/11 06:41:17;;;;;;;24.00;3.75;;;8.90;99.90;;;;;;5059616;28;20120;-79
2023/12/11 06:43:47;;;;;;;28.05;4.20;;;8.90;99.90;;;;;;5059996;28;20033;-79
2023/12/11 06:46:12;;;;;;;22.92;3.58;;;9.00;99.90;;;;;;5079463;28;20025;-79
2023/12/11 06:48:38;;;;;;;28.95;5.88;;;8.80;99.90;;;;;;5069375;28;20059;-78
2023/12/11 06:51:03;;;;;;;17.42;3.60;;;8.80;99.90;;;;;;5065341;28;20067;-78
2023/12/11 06:53:30;;;;;;;26.02;5.35;;;8.80;99.90;;;;;;5050376;28;20089;-78
2023/12/11 06:55:55;;;;;;;24.15;3.72;;;8.90;99.90;;;;;;5060132;28;20041;-78
2023/12/11 06:58:21;;;;;;;30.88;4.10;;;8.90;99.90;;;;;;5059714;28;20095;-78
2023/12/11 07:00:47;;;;;;;23.50;4.15;;;8.80;99.90;;;;;;5059289;28;20029;-79
2023/12/11 07:03:13;;;;;;;27.30;4.63;;;8.80;99.90;;;;;;5044425;28;20036;-79
2023/12/11 07:05:42;;;;;;;24.40;3.55;;;8.80;99.90;;;;;;5063204;28;20047;-79
2023/12/11 07:08:08;;;;;;;23.27;4.22;;;8.90;99.90;;;;;;5098560;28;20040;-79
2023/12/11 07:10:34;;;;;;;22.45;3.50;;;8.80;99.90;;;;;;5060497;28;20052;-78
2023/12/11 07:12:59;;;;;;;22.40;4.03;;;8.80;99.90;;;;;;5059698;28;20044;-79
2023/12/11 07:15:25;;;;;;;27.88;4.18;;;8.80;99.90;;;;;;5064029;28;20029;-79
2023/12/11 07:17:51;;;;;;;19.45;3.40;;;9.10;99.90;;;;;;5059154;28;20046;-79
2023/12/11 07:20:16;;;;;;;21.45;3.15;;;9.20;99.90;;;;;;5062733;28;20071;-78
2023/12/11 07:22:42;;;;;;;14.40;2.85;;;8.70;99.90;;;;;;5057244;28;20053;-78
2023/12/11 07:25:07;;;;;;;22.20;3.25;;;9.00;99.90;;;;;;5063893;28;20032;-79
2023/12/11 07:27:34;;;;;;;15.45;2.63;;;8.70;99.90;;;;;;5097303;28;20039;-78
2023/12/11 07:29:59;;;;;;;18.17;3.30;;;8.80;99.90;;;;;;5089891;28;20071;-79
2023/12/11 07:32:25;;;;;;;22.90;3.35;;;9.00;99.90;;;;;;5051498;28;20038;-78
2023/12/11 07:34:51;;;;;;;15.23;3.17;;;8.80;99.90;;;;;;5051729;28;20041;-79
2023/12/11 07:37:16;;;;;;;19.17;3.05;;;8.70;99.90;;;;;;5052812;28;20044;-78
2023/12/11 07:39:42;;;;;;;18.35;3.13;;;8.60;99.90;;;;;;5059185;28;20061;-77
2023/12/11 07:42:08;;;;;;;17.63;2.92;;;8.60;99.90;;;;;;5056981;28;20037;-79
2023/12/11 07:44:33;;;;;;;16.48;2.80;;;8.60;99.90;;;;;;5052880;28;20395;-78
2023/12/11 07:46:59;;;;;;;24.83;3.55;;;8.90;99.90;;;;;;5047391;28;20041;-79
2023/12/11 07:49:25;;;;;;;16.80;3.15;;;8.90;99.90;;;;;;5058569;28;20444;-78
2023/12/11 07:51:52;;;;;;;19.95;3.63;;;8.70;99.90;;;;;;5058203;28;20133;-79
2023/12/11 07:54:18;;;;;;;19.58;3.08;;;8.70;99.90;;;;;;5057019;28;20115;-79
2023/12/11 07:56:43;;;;;;;15.65;3.63;;;8.70;99.90;;;;;;5054534;28;20041;-78
2023/12/11 07:59:10;;;;;;;18.77;2.85;;;8.60;99.90;;;;;;5058486;28;20033;-78
2023/12/11 08:01:35;;;;;;;20.15;3.20;;;8.80;99.90;;;;;;5057386;28;20370;-79
2023/12/11 08:04:01;;;;;;;18.50;2.78;;;8.80;99.90;;;;;;5040851;28;20044;-78
2023/12/11 08:06:27;;;;;;;17.35;2.80;;;8.60;99.90;;;;;;5055495;28;20037;-78
2023/12/11 08:08:53;;;;;;;13.35;2.80;;;9.00;99.90;;;;;;5058492;28;20075;-78
2023/12/11 08:11:25;;;;;;;14.23;2.97;;;8.70;99.90;;;;;;5057045;28;20107;-79
2023/12/11 08:13:51;;;;;;;14.15;2.58;;;8.80;99.90;;;;;;5056028;28;20049;-78
2023/12/11 08:16:17;;;;;;;16.52;2.95;;;9.00;99.90;;;;;;5039125;28;20033;-79
2023/12/11 08:18:44;;;;;;;13.10;2.75;;;8.70;99.90;;;;;;5053687;28;20154;-78
2023/12/11 08:21:10;;;;;;;13.93;2.38;;;8.70;99.90;;;;;;5057376;28;20047;-79
2023/12/11 08:23:39;;;;;;;14.95;3.88;;;8.60;99.90;;;;;;5049870;28;20416;-78
2023/12/11 08:26:05;;;;;;;16.52;2.92;;;8.70;99.90;;;;;;5052257;28;20476;-78
2023/12/11 08:28:30;;;;;;;15.85;3.65;;;8.60;99.90;;;;;;5053089;28;20071;-79
2023/12/11 08:30:56;;;;;;;8.70;2.53;;;8.60;99.90;;;;;;5057373;28;20063;-79
2023/12/11 08:33:22;;;;;;;15.68;4.13;;;8.60;99.90;;;;;;5062463;28;20558;-78
2023/12/11 08:35:47;;;;;;;12.20;2.50;;;8.80;99.90;;;;;;5064214;28;20041;-78
2023/12/11 08:38:16;;;;;;;15.57;3.10;;;8.60;99.90;;;;;;5061148;28;20029;-78
2023/12/11 08:40:42;;;;;;;12.55;3.28;;;8.60;99.90;;;;;;5061917;28;20419;-78
2023/12/11 08:43:08;;;;;;;13.52;3.20;;;8.60;99.90;;;;;;5061255;28;20025;-79
2023/12/11 08:45:34;;;;;;;16.95;3.17;;;8.70;99.90;;;;;;5096029;28;20071;-79
2023/12/11 08:48:00;;;;;;;14.65;3.40;;;8.60;99.90;;;;;;5060923;28;20033;-79
2023/12/11 08:50:25;;;;;;;13.20;3.55;;;8.70;99.90;;;;;;5063317;28;20033;-78
2023/12/11 08:52:51;;;;;;;12.65;3.38;;;8.90;99.90;;;;;;5095347;28;20045;-78
2023/12/11 08:55:17;;;;;;;14.07;3.92;;;8.80;99.90;;;;;;5063458;28;20044;-79
2023/12/11 08:57:44;;;;;;;14.93;3.28;;;8.70;99.90;;;;;;5062187;28;20049;-79
2023/12/11 09:00:11;;;;;;;16.98;3.70;;;8.90;99.90;;;;;;5061636;28;20084;-78
2023/12/11 09:02:36;;;;;;;18.08;3.67;;;8.70;99.90;;;;;;5060715;28;20059;-78
2023/12/11 09:05:03;;;;;;;11.02;3.83;;;8.70;99.90;;;;;;5061546;28;20096;-78
2023/12/11 09:07:29;;;;;;;10.98;3.58;;;8.60;99.90;;;;;;5062771;28;20040;-79
2023/12/11 09:09:55;;;;;;;15.00;3.22;;;8.90;99.90;;;;;;5063860;28;20037;-79
2023/12/11 09:12:21;;;;;;;14.13;3.63;;;8.70;99.90;;;;;;5062637;28;20076;-78
2023/12/11 09:14:47;;;;;;;11.93;3.80;;;8.70;99.90;;;;;;5062096;28;20041;-78
2023/12/11 09:17:13;;;;;;;10.93;3.40;;;8.90;99.90;;;;;;5067275;28;20055;-79
2023/12/11 09:19:38;;;;;;;12.70;3.72;;;8.70;99.90;;;;;;5068828;28;20036;-78
2023/12/11 09:22:04;;;;;;;14.75;3.83;;;8.80;99.90;;;;;;5068636;28;20060;-78
2023/12/11 09:24:29;;;;;;;15.90;4.10;;;8.80;99.90;;;;;;5062559;28;20564;-79
2023/12/11 09:26:55;;;;;;;14.95;3.63;;;8.80;99.90;;;;;;5063907;28;20037;-78
2023/12/11 09:29:21;;;;;;;16.73;3.58;;;8.80;99.90;;;;;;5067079;28;20052;-78
2023/12/11 09:31:46;;;;;;;20.00;3.92;;;8.80;99.90;;;;;;5063354;28;20097;-79
2023/12/11 09:34:12;;;;;;;13.05;3.65;;;8.80;99.90;;;;;;5065296;28;20083;-79
2023/12/11 09:36:38;;;;;;;22.48;3.83;;;8.80;99.90;;;;;;5067270;28;20094;-79
2023/12/11 09:39:05;;;;;;;17.45;3.65;;;8.90;99.90;;;;;;5066110;28;20068;-79
2023/12/11 09:41:34;;;;;;;18.98;3.50;;;8.90;99.90;;;;;;5065186;28;20037;-79
2023/12/11 09:44:01;;;;;;;14.48;4.05;;;9.00;99.90;;;;;;5051224;28;20047;-79
2023/12/11 09:46:29;;;;;;;23.00;3.72;;;8.90;99.90;;;;;;5067403;28;20045;-79
2023/12/11 09:48:55;;;;;;;18.35;4.05;;;8.90;99.90;;;;;;5066696;28;20072;-78
2023/12/11 09:51:21;;;;;;;19.05;4.00;;;8.90;99.90;;;;;;5064902;28;20040;-79
2023/12/11 09:53:48;;;;;;;25.17;3.85;;;8.90;99.90;;;;;;5066707;28;20047;-79
2023/12/11 09:56:15;;;;;;;20.88;3.78;;;9.00;99.90;;;;;;5067115;28;20037;-79
2023/12/11 09:58:43;;;;;;;19.38;4.65;;;9.10;99.90;;;;;;5050531;28;20041;-79
2023/12/11 10:01:12;;;;;;;16.08;4.22;;;9.00;99.90;;;;;;5067677;28;20037;-78
2023/12/11 10:03:37;;;;;;;20.92;4.38;;;9.10;99.90;;;;;;5067492;28;20060;-78
2023/12/11 10:06:04;;;;;;;21.25;4.10;;;9.10;99.90;;;;;;5061683;28;20063;-79
2023/12/11 10:08:30;;;;;;;21.75;3.95;;;9.20;99.90;;;;;;5067525;28;20048;-78
2023/12/11 10:11:09;;;;;;;18.48;3.10;;;9.20;99.90;;;;;;5050255;28;20045;-77
2023/12/11 10:13:35;;;;;;;17.23;2.38;;;9.20;99.90;;;;;;5062249;28;20037;-79
2023/12/11 10:16:01;;;;;;;12.05;2.38;;;9.20;99.90;;;;;;5067298;28;20075;-78
2023/12/11 10:18:27;;;;;;;13.27;2.47;;;9.20;99.90;;;;;;5067653;28;20075;-78
2023/12/11 10:20:54;;;;;;;17.10;1.92;;;9.10;99.90;;;;;;5065752;28;20036;-80
2023/12/11 10:23:23;;;;;;;12.93;2.63;;;9.10;99.90;;;;;;5064950;28;20052;-79
2023/12/11 10:25:56;;;;;;;9.27;1.80;;;9.00;99.90;;;;;;5060457;28;20039;-78
2023/12/11 10:28:23;;;;;;;7.32;1.30;;;8.90;99.90;;;;;;5046700;28;20516;-79
2023/12/11 10:31:04;;;;;;;8.18;1.90;;;8.90;99.90;;;;;;5060501;28;20119;-78
2023/12/11 10:33:33;;;;;;;10.75;2.38;;;8.90;99.90;;;;;;5058780;28;20025;-79
2023/12/11 10:36:13;;;;;;;11.80;2.03;;;8.90;99.90;;;;;;5064599;28;20499;-79
2023/12/11 10:38:39;;;;;;;10.30;2.10;;;9.00;99.90;;;;;;5053903;28;20535;-79
2023/12/11 10:41:05;;;;;;;11.88;2.10;;;9.00;99.90;;;;;;5060597;28;20039;-79
2023/12/11 10:43:42;;;;;;;16.48;3.03;;;9.10;99.90;;;;;;5066854;28;20447;-79
2023/12/11 10:46:08;;;;;;;16.15;3.17;;;9.20;99.90;;;;;;5068401;28;20071;-78
2023/12/11 10:48:35;;;;;;;17.95;2.85;;;9.20;99.90;;;;;;5066859;28;20037;-79
2023/12/11 10:51:02;;;;;;;15.20;2.90;;;9.30;99.90;;;;;;5049896;28;20052;-79
2023/12/11 10:53:28;;;;;;;15.85;2.95;;;9.30;99.90;;;;;;5066140;28;20420;-77
2023/12/11 10:55:56;;;;;;;22.40;3.55;;;9.30;99.90;;;;;;5068271;28;20045;-78
2023/12/11 10:58:25;;;;;;;15.07;3.45;;;9.30;99.90;;;;;;5067867;28;20067;-78
2023/12/11 11:00:52;;;;;;;20.02;2.92;;;9.40;99.90;;;;;;5050224;28;20037;-79
2023/12/11 11:03:19;;;;;;;23.33;4.10;;;9.40;99.90;;;;;;5090168;28;20112;-80
2023/12/11 11:05:46;;;;;;;18.00;3.25;;;9.40;99.90;;;;;;5096469;28;20032;-79
2023/12/11 11:08:19;;;;;;;21.80;3.17;;;9.40;99.90;;;;;;5057255;28;20055;-78
2023/12/11 11:10:57;;;;;;;23.67;3.87;;;9.50;99.90;;;;;;5064546;28;20047;-78
2023/12/11 11:13:29;;;;;;;13.35;3.22;;;9.40;99.90;;;;;;5060129;28;20025;-79
2023/12/11 11:15:55;;;;;;;15.90;2.83;;;9.40;99.90;;;;;;5066999;28;20094;-79
2023/12/11 11:18:21;;;;;;;20.20;3.60;;;9.40;99.90;;;;;;5066252;28;20095;-79
2023/12/11 11:21:12;;;;;;;11.43;2.25;;;9.40;99.90;;;;;;5065665;28;20033;-79
2023/12/11 11:23:42;;;;;;;14.75;2.53;;;9.40;99.90;;;;;;5049031;28;20108;-78
2023/12/11 11:26:34;;;;;;;12.73;3.05;;;9.40;99.90;;;;;;5057757;28;20065;-78
2023/12/11 11:29:04;;;;;;;14.85;2.67;;;9.40;99.90;;;;;;5080074;28;20042;-78
2023/12/11 11:31:49;;;;;;;9.70;1.92;;;9.40;99.90;;;;;;5063184;28;20053;-78
2023/12/11 11:34:35;;;;;;;11.27;2.15;;;9.40;99.90;;;;;;5037591;28;20087;-78
2023/12/11 11:37:01;;;;;;;9.75;2.10;;;9.40;99.90;;;;;;5046800;28;20076;-79
2023/12/11 11:39:59;;;;;;;12.77;1.77;;;9.30;99.90;;;;;;5065188;28;20036;-78
2023/12/11 11:42:31;;;;;;;9.80;1.50;;;9.30;99.90;;;;;;5064760;28;20115;-79
2023/12/11 11:45:02;;;;;;;10.77;1.75;;;9.20;99.90;;;;;;5066434;28;20037;-78
2023/12/11 11:47:29;;;;;;;7.93;1.30;;;9.20;99.90;;;;;;5064657;28;20043;-80
2023/12/11 11:50:03;;;;;;;6.28;1.52;;;9.20;99.90;;;;;;5064895;28;20045;-78
2023/12/11 11:52:29;;;;;;;8.40;1.55;;;9.50;99.90;;;;;;5064140;28;20036;-79
2023/12/11 11:55:23;;;;;;;6.90;0.90;;;9.20;99.90;;;;;;5064545;28;20154;-78
2023/12/11 11:57:49;;;;;;;8.43;1.30;;;9.20;99.90;;;;;;5063186;28;20032;-77
2023/12/11 12:00:22;;;;;;;6.53;1.25;;;9.20;99.90;;;;;;5045823;28;20048;-78
2023/12/11 12:02:59;;;;;;;9.02;1.30;;;9.20;99.90;;;;;;5063168;28;20516;-79
2023/12/11 12:05:26;;;;;;;6.85;1.27;;;9.20;99.90;;;;;;5064429;28;20029;-78
2023/12/11 12:07:55;;;;;;;9.70;1.85;;;9.30;99.90;;;;;;5050882;28;20033;-78
2023/12/11 12:10:20;;;;;;;10.27;2.17;;;9.20;99.90;;;;;;5065596;28;20047;-78
2023/12/11 12:12:55;;;;;;;8.88;1.90;;;9.20;99.90;;;;;;5064783;28;20045;-77
2023/12/11 12:15:21;;;;;;;8.35;1.88;;;9.20;99.90;;;;;;5057647;28;20198;-80
2023/12/11 12:17:46;;;;;;;16.30;2.53;;;9.20;99.90;;;;;;5058235;28;20144;-78
2023/12/11 12:20:13;;;;;;;17.52;2.53;;;9.30;99.90;;;;;;5064098;28;20033;-79
2023/12/11 12:22:58;;;;;;;14.23;2.70;;;9.20;99.90;;;;;;5062876;28;20086;-77
2023/12/11 12:25:26;;;;;;;18.25;3.40;;;9.20;99.90;;;;;;5058021;28;20057;-78
2023/12/11 12:27:54;;;;;;;17.75;3.10;;;9.10;99.90;;;;;;5059047;28;20044;-78
2023/12/11 12:30:20;;;;;;;14.23;3.30;;;9.00;99.90;;;;;;5059519;28;20032;-79
2023/12/11 12:32:51;;;;;;;13.85;2.72;;;8.90;99.90;;;;;;5093332;28;20033;-78
2023/12/11 12:35:21;;;;;;;16.75;2.80;;;8.90;99.90;;;;;;5048917;28;20037;-78
2023/12/11 12:37:49;;;;;;;17.73;2.50;;;8.80;99.90;;;;;;5080433;28;20040;-78
2023/12/11 12:40:17;;;;;;;9.98;2.30;;;8.90;99.90;;;;;;5045408;28;20033;-79
2023/12/11 12:42:42;;;;;;;13.35;2.30;;;8.60;99.90;;;;;;5028173;28;20037;-79
2023/12/11 12:45:09;;;;;;;14.82;2.08;;;8.70;99.90;;;;;;5040977;28;20036;-79
2023/12/11 12:47:45;;;;;;;11.45;1.90;;;8.50;99.90;;;;;;5045296;28;20491;-79